sensor_id;sensor_type;location;lat;lon;timestamp;P1;durP1;ratioP1;P2;durP2;ratioP2
35797;SDS011;21918;49.940;7.774;2023-04-16T01:00:26;14.95;;;10.57;;
35797;SDS011;21918;49.940;7.774;2023-04-16T01:03:41;14.35;;;9.73;;
35797;SDS011;21918;49.940;7.774;2023-04-16T01:06:12;13.82;;;10.43;;
35797;SDS011;21918;49.940;7.774;2023-04-16T01:08:53;12.80;;;10.50;;
35797;SDS011;21918;49.940;7.774;2023-04-16T01:11:20;12.30;;;9.48;;
35797;SDS011;21918;49.940;7.774;2023-04-16T01:13:52;13.55;;;10.52;;
35797;SDS011;21918;49.940;7.774;2023-04-16T01:16:25;13.30;;;9.30;;
35797;SDS011;21918;49.940;7.774;2023-04-16T01:18:58;14.02;;;9.80;;
35797;SDS011;21918;49.940;7.774;2023-04-16T01:21:37;12.43;;;9.57;;
35797;SDS011;21918;49.940;7.774;2023-04-16T01:24:07;16.55;;;10.07;;
35797;SDS011;21918;49.940;7.774;2023-04-16T01:26:34;15.60;;;11.48;;
35797;SDS011;21918;49.940;7.774;2023-04-16T01:29:01;13.63;;;10.25;;
35797;SDS011;21918;49.940;7.774;2023-04-16T01:31:37;14.10;;;10.30;;
35797;SDS011;21918;49.940;7.774;2023-04-16T01:34:07;12.70;;;9.23;;
35797;SDS011;21918;49.940;7.774;2023-04-16T01:36:41;14.95;;;11.00;;
35797;SDS011;21918;49.940;7.774;2023-04-16T01:39:11;15.73;;;10.10;;
35797;SDS011;21918;49.940;7.774;2023-04-16T01:41:40;14.43;;;10.32;;
35797;SDS011;21918;49.940;7.774;2023-04-16T01:44:21;15.18;;;10.23;;
35797;SDS011;21918;49.940;7.774;2023-04-16T01:46:50;14.57;;;10.38;;
35797;SDS011;21918;49.940;7.774;2023-04-16T01:49:22;14.30;;;10.48;;
35797;SDS011;21918;49.940;7.774;2023-04-16T01:51:51;12.18;;;9.95;;
35797;SDS011;21918;49.940;7.774;2023-04-16T01:54:21;16.52;;;11.20;;
35797;SDS011;21918;49.940;7.774;2023-04-16T01:56:54;14.35;;;9.73;;
35797;SDS011;21918;49.940;7.774;2023-04-16T01:59:22;14.95;;;10.57;;
35797;SDS011;21918;49.940;7.774;2023-04-16T02:01:51;16.75;;;11.38;;
35797;SDS011;21918;49.940;7.774;2023-04-16T02:04:23;17.48;;;11.18;;
35797;SDS011;21918;49.940;7.774;2023-04-16T02:06:54;15.68;;;11.25;;
35797;SDS011;21918;49.940;7.774;2023-04-16T02:09:26;19.35;;;11.65;;
35797;SDS011;21918;49.940;7.774;2023-04-16T02:11:53;16.30;;;11.35;;
35797;SDS011;21918;49.940;7.774;2023-04-16T02:14:23;15.65;;;10.35;;
35797;SDS011;21918;49.940;7.774;2023-04-16T02:16:58;17.50;;;12.35;;
35797;SDS011;21918;49.940;7.774;2023-04-16T02:19:28;18.70;;;12.18;;
35797;SDS011;21918;49.940;7.774;2023-04-16T02:22:04;15.73;;;11.75;;
35797;SDS011;21918;49.940;7.774;2023-04-16T02:24:35;20.77;;;11.25;;
35797;SDS011;21918;49.940;7.774;2023-04-16T02:27:12;17.63;;;12.40;;
35797;SDS011;21918;49.940;7.774;2023-04-16T02:29:43;17.75;;;11.70;;
35797;SDS011;21918;49.940;7.774;2023-04-16T02:32:19;15.75;;;11.52;;
35797;SDS011;21918;49.940;7.774;2023-04-16T02:34:46;17.05;;;12.07;;
35797;SDS011;21918;49.940;7.774;2023-04-16T02:37:19;17.83;;;11.40;;
35797;SDS011;21918;49.940;7.774;2023-04-16T02:39:45;14.68;;;9.45;;
35797;SDS011;21918;49.940;7.774;2023-04-16T02:42:14;14.18;;;9.80;;
35797;SDS011;21918;49.940;7.774;2023-04-16T02:44:41;13.45;;;10.13;;
35797;SDS011;21918;49.940;7.774;2023-04-16T02:47:14;14.48;;;9.65;;
35797;SDS011;21918;49.940;7.774;2023-04-16T02:49:40;13.93;;;9.18;;
35797;SDS011;21918;49.940;7.774;2023-04-16T02:52:07;13.25;;;9.80;;
35797;SDS011;21918;49.940;7.774;2023-04-16T02:54:40;13.25;;;8.65;;
35797;SDS011;21918;49.940;7.774;2023-04-16T02:57:15;12.93;;;9.05;;
35797;SDS011;21918;49.940;7.774;2023-04-16T02:59:42;11.93;;;8.45;;
35797;SDS011;21918;49.940;7.774;2023-04-16T03:02:09;13.90;;;8.85;;
35797;SDS011;21918;49.940;7.774;2023-04-16T03:04:38;11.63;;;7.65;;
35797;SDS011;21918;49.940;7.774;2023-04-16T03:07:08;13.73;;;9.48;;
35797;SDS011;21918;49.940;7.774;2023-04-16T03:09:36;10.75;;;8.13;;
35797;SDS011;21918;49.940;7.774;2023-04-16T03:12:05;13.13;;;7.55;;
35797;SDS011;21918;49.940;7.774;2023-04-16T03:14:32;14.98;;;8.68;;
35797;SDS011;21918;49.940;7.774;2023-04-16T03:17:01;12.65;;;9.07;;
35797;SDS011;21918;49.940;7.774;2023-04-16T03:19:34;15.52;;;8.90;;
35797;SDS011;21918;49.940;7.774;2023-04-16T03:22:03;12.18;;;8.23;;
35797;SDS011;21918;49.940;7.774;2023-04-16T03:24:33;12.32;;;8.30;;
35797;SDS011;21918;49.940;7.774;2023-04-16T03:27:02;12.88;;;8.60;;
35797;SDS011;21918;49.940;7.774;2023-04-16T03:29:36;14.80;;;8.85;;
35797;SDS011;21918;49.940;7.774;2023-04-16T03:32:04;10.35;;;7.30;;
35797;SDS011;21918;49.940;7.774;2023-04-16T03:34:33;14.05;;;8.98;;
35797;SDS011;21918;49.940;7.774;2023-04-16T03:37:04;12.20;;;9.43;;
35797;SDS011;21918;49.940;7.774;2023-04-16T03:39:40;13.20;;;8.40;;
35797;SDS011;21918;49.940;7.774;2023-04-16T03:42:08;12.90;;;8.93;;
35797;SDS011;21918;49.940;7.774;2023-04-16T03:44:37;12.85;;;7.80;;
35797;SDS011;21918;49.940;7.774;2023-04-16T03:47:05;11.05;;;7.15;;
35797;SDS011;21918;49.940;7.774;2023-04-16T03:49:35;9.38;;;7.72;;
35797;SDS011;21918;49.940;7.774;2023-04-16T03:52:06;11.52;;;7.35;;
35797;SDS011;21918;49.940;7.774;2023-04-16T03:54:35;10.13;;;6.80;;
35797;SDS011;21918;49.940;7.774;2023-04-16T03:57:02;8.80;;;7.03;;
35797;SDS011;21918;49.940;7.774;2023-04-16T03:59:29;9.15;;;6.38;;
35797;SDS011;21918;49.940;7.774;2023-04-16T04:02:06;9.13;;;6.13;;
35797;SDS011;21918;49.940;7.774;2023-04-16T04:04:33;10.90;;;6.93;;
35797;SDS011;21918;49.940;7.774;2023-04-16T04:07:05;9.82;;;6.40;;
35797;SDS011;21918;49.940;7.774;2023-04-16T04:09:32;10.48;;;6.95;;
35797;SDS011;21918;49.940;7.774;2023-04-16T04:12:17;10.35;;;6.85;;
35797;SDS011;21918;49.940;7.774;2023-04-16T04:14:47;8.25;;;6.28;;
35797;SDS011;21918;49.940;7.774;2023-04-16T04:17:18;10.57;;;8.15;;
35797;SDS011;21918;49.940;7.774;2023-04-16T04:19:45;11.25;;;8.38;;
35797;SDS011;21918;49.940;7.774;2023-04-16T04:22:16;10.20;;;7.18;;
35797;SDS011;21918;49.940;7.774;2023-04-16T04:24:47;12.52;;;7.22;;
35797;SDS011;21918;49.940;7.774;2023-04-16T04:27:18;10.15;;;7.35;;
35797;SDS011;21918;49.940;7.774;2023-04-16T04:29:45;11.43;;;7.35;;
35797;SDS011;21918;49.940;7.774;2023-04-16T04:32:23;10.73;;;7.68;;
35797;SDS011;21918;49.940;7.774;2023-04-16T04:34:54;12.93;;;8.55;;
35797;SDS011;21918;49.940;7.774;2023-04-16T04:37:23;9.32;;;7.15;;
35797;SDS011;21918;49.940;7.774;2023-04-16T04:39:50;15.18;;;8.18;;
35797;SDS011;21918;49.940;7.774;2023-04-16T04:42:22;13.65;;;8.45;;
35797;SDS011;21918;49.940;7.774;2023-04-16T04:44:52;13.32;;;7.90;;
35797;SDS011;21918;49.940;7.774;2023-04-16T04:47:31;13.75;;;9.05;;
35797;SDS011;21918;49.940;7.774;2023-04-16T04:49:58;11.07;;;8.05;;
35797;SDS011;21918;49.940;7.774;2023-04-16T04:52:25;15.57;;;9.32;;
35797;SDS011;21918;49.940;7.774;2023-04-16T04:55:02;13.13;;;9.48;;
35797;SDS011;21918;49.940;7.774;2023-04-16T04:57:30;13.80;;;9.05;;
35797;SDS011;21918;49.940;7.774;2023-04-16T04:59:57;14.35;;;9.23;;
35797;SDS011;21918;49.940;7.774;2023-04-16T05:02:25;11.38;;;8.35;;
35797;SDS011;21918;49.940;7.774;2023-04-16T05:04:55;13.18;;;9.40;;
35797;SDS011;21918;49.940;7.774;2023-04-16T05:07:23;17.17;;;10.80;;
35797;SDS011;21918;49.940;7.774;2023-04-16T05:09:56;11.55;;;8.05;;
35797;SDS011;21918;49.940;7.774;2023-04-16T05:20:10;11.50;;;8.45;;
35797;SDS011;21918;49.940;7.774;2023-04-16T05:22:45;15.38;;;8.05;;
35797;SDS011;21918;49.940;7.774;2023-04-16T05:25:14;13.98;;;8.00;;
35797;SDS011;21918;49.940;7.774;2023-04-16T05:27:59;11.98;;;7.50;;
35797;SDS011;21918;49.940;7.774;2023-04-16T05:30:35;13.73;;;8.45;;
35797;SDS011;21918;49.940;7.774;2023-04-16T05:33:04;11.15;;;7.57;;
35797;SDS011;21918;49.940;7.774;2023-04-16T05:35:39;13.68;;;9.70;;
35797;SDS011;21918;49.940;7.774;2023-04-16T05:38:09;13.45;;;8.68;;
35797;SDS011;21918;49.940;7.774;2023-04-16T05:40:47;12.80;;;8.23;;
35797;SDS011;21918;49.940;7.774;2023-04-16T05:43:16;12.20;;;7.80;;
35797;SDS011;21918;49.940;7.774;2023-04-16T05:45:47;15.05;;;8.15;;
35797;SDS011;21918;49.940;7.774;2023-04-16T05:48:14;11.90;;;7.63;;
35797;SDS011;21918;49.940;7.774;2023-04-16T05:50:42;12.43;;;9.38;;
35797;SDS011;21918;49.940;7.774;2023-04-16T05:53:14;10.65;;;7.30;;
35797;SDS011;21918;49.940;7.774;2023-04-16T05:55:43;10.50;;;7.72;;
35797;SDS011;21918;49.940;7.774;2023-04-16T05:58:10;13.63;;;9.38;;
35797;SDS011;21918;49.940;7.774;2023-04-16T06:00:38;9.70;;;7.88;;
35797;SDS011;21918;49.940;7.774;2023-04-16T06:03:05;11.43;;;7.28;;
35797;SDS011;21918;49.940;7.774;2023-04-16T06:05:35;13.70;;;8.68;;
35797;SDS011;21918;49.940;7.774;2023-04-16T06:08:09;11.77;;;8.70;;
35797;SDS011;21918;49.940;7.774;2023-04-16T06:10:36;11.82;;;7.28;;
35797;SDS011;21918;49.940;7.774;2023-04-16T06:13:03;10.60;;;7.78;;
35797;SDS011;21918;49.940;7.774;2023-04-16T06:15:39;9.90;;;6.88;;
35797;SDS011;21918;49.940;7.774;2023-04-16T06:18:07;11.63;;;7.63;;
35797;SDS011;21918;49.940;7.774;2023-04-16T06:20:34;11.18;;;8.32;;
